createdAt,value
2017-12-10T00:00:09.761Z,994.13
2017-12-10T00:01:09.782Z,994.11
2017-12-10T00:02:09.805Z,994.11
2017-12-10T00:03:09.828Z,994.05
2017-12-10T00:04:09.852Z,994.00
2017-12-10T00:05:09.877Z,994.02
2017-12-10T00:06:09.902Z,994.00
2017-12-10T00:07:09.924Z,993.96
2017-12-10T00:08:09.948Z,993.90
2017-12-10T00:09:09.971Z,993.83
2017-12-10T00:10:09.997Z,993.83
2017-12-10T00:11:10.021Z,993.81
2017-12-10T00:12:10.043Z,993.76
2017-12-10T00:13:10.068Z,993.72
2017-12-10T00:14:10.092Z,993.66
2017-12-10T00:15:10.116Z,993.66
2017-12-10T00:16:10.140Z,993.64
2017-12-10T00:17:10.164Z,993.64
2017-12-10T00:18:10.188Z,993.64
2017-12-10T00:19:10.211Z,993.55
2017-12-10T00:20:10.236Z,993.54
2017-12-10T00:21:10.260Z,993.50
2017-12-10T00:22:10.285Z,993.47
2017-12-10T00:23:10.309Z,993.46
2017-12-10T00:24:10.331Z,993.45
2017-12-10T00:25:10.357Z,993.40
2017-12-10T00:26:10.381Z,993.34
2017-12-10T00:27:10.406Z,993.38
2017-12-10T00:28:10.428Z,993.38
2017-12-10T00:29:10.453Z,993.35
2017-12-10T00:30:10.477Z,993.31
2017-12-10T00:31:10.502Z,993.28
2017-12-10T00:32:10.527Z,993.27
2017-12-10T00:33:10.548Z,993.32
2017-12-10T00:34:10.575Z,993.35
2017-12-10T00:35:10.599Z,993.36
2017-12-10T00:36:10.622Z,993.33
2017-12-10T00:37:10.647Z,993.24
2017-12-10T00:38:10.670Z,993.24
2017-12-10T00:39:10.696Z,993.23
2017-12-10T00:40:10.719Z,993.26
2017-12-10T00:41:10.742Z,993.20
2017-12-10T00:42:10.768Z,993.15
2017-12-10T00:43:10.792Z,993.10
2017-12-10T00:44:10.816Z,993.19
2017-12-10T00:45:10.841Z,993.16
2017-12-10T00:46:10.865Z,993.10
2017-12-10T00:47:10.890Z,993.11
2017-12-10T00:48:10.912Z,993.12
2017-12-10T00:49:10.937Z,993.14
2017-12-10T00:50:10.960Z,993.07
2017-12-10T00:51:11.024Z,993.02
2017-12-10T00:52:11.010Z,992.98
2017-12-10T00:53:11.035Z,992.97
2017-12-10T00:54:11.058Z,992.95
2017-12-10T00:55:11.083Z,992.92
2017-12-10T00:56:11.106Z,992.87
2017-12-10T00:57:11.131Z,992.89
2017-12-10T00:58:11.155Z,992.84
2017-12-10T00:59:11.180Z,992.86
2017-12-10T01:00:11.203Z,992.75
2017-12-10T01:01:11.228Z,992.77
2017-12-10T01:02:11.254Z,992.70
2017-12-10T01:03:11.277Z,992.63
2017-12-10T01:04:11.300Z,992.64
2017-12-10T01:05:11.324Z,992.61
2017-12-10T01:06:11.348Z,992.53
2017-12-10T01:07:11.373Z,992.56
2017-12-10T01:08:11.396Z,992.53
2017-12-10T01:09:11.422Z,992.49
2017-12-10T01:10:11.446Z,992.43
2017-12-10T01:11:11.471Z,992.39
2017-12-10T01:12:11.495Z,992.33
2017-12-10T01:13:11.519Z,992.36
2017-12-10T01:14:11.545Z,992.34
2017-12-10T01:15:11.568Z,992.29
2017-12-10T01:16:11.592Z,992.28
2017-12-10T01:17:11.617Z,992.27
2017-12-10T01:18:11.640Z,992.26
2017-12-10T01:19:11.665Z,992.28
2017-12-10T01:20:11.688Z,992.26
2017-12-10T01:21:11.713Z,992.25
2017-12-10T01:22:11.739Z,992.18
2017-12-10T01:23:11.763Z,992.17
2017-12-10T01:24:11.786Z,992.09
2017-12-10T01:25:11.811Z,992.10
2017-12-10T01:26:11.840Z,992.15
2017-12-10T01:27:11.860Z,992.08
2017-12-10T01:28:11.883Z,992.08
2017-12-10T01:29:11.910Z,992.11
2017-12-10T01:30:11.937Z,992.11
2017-12-10T01:31:11.961Z,992.11
2017-12-10T01:32:11.982Z,992.07
2017-12-10T01:33:12.005Z,992.05
2017-12-10T01:34:12.032Z,992.04
2017-12-10T01:35:12.070Z,991.98
2017-12-10T01:36:12.080Z,991.94
2017-12-10T01:37:12.103Z,991.85
2017-12-10T01:38:12.128Z,991.90
2017-12-10T01:39:12.156Z,991.82
2017-12-10T01:40:12.177Z,991.84
2017-12-10T01:41:12.203Z,991.87
2017-12-10T01:42:12.228Z,991.84
2017-12-10T01:43:12.251Z,991.74
2017-12-10T01:44:12.275Z,991.76
2017-12-10T01:45:12.299Z,991.71
2017-12-10T01:46:12.324Z,991.66
2017-12-10T01:47:12.348Z,991.64
2017-12-10T01:48:12.373Z,991.60
2017-12-10T01:49:12.396Z,991.65
2017-12-10T01:50:12.420Z,991.59
2017-12-10T01:51:12.446Z,991.56
2017-12-10T01:52:12.471Z,991.55
2017-12-10T01:53:12.495Z,991.50
2017-12-10T01:54:12.520Z,991.50
2017-12-10T01:55:12.545Z,991.53
2017-12-10T01:56:12.567Z,991.55
2017-12-10T01:57:12.598Z,991.56
2017-12-10T01:58:12.617Z,991.55
2017-12-10T01:59:12.642Z,991.42
2017-12-10T02:00:12.666Z,991.46
2017-12-10T02:01:12.691Z,991.45
2017-12-10T02:02:12.716Z,991.45
2017-12-10T02:03:12.740Z,991.44
2017-12-10T02:04:12.765Z,991.44
2017-12-10T02:05:12.790Z,991.36
2017-12-10T02:06:12.814Z,991.33
2017-12-10T02:07:12.839Z,991.36
2017-12-10T02:08:12.862Z,991.25
2017-12-10T02:09:12.886Z,991.25
2017-12-10T02:10:12.910Z,991.26
2017-12-10T02:11:12.935Z,991.22
2017-12-10T02:12:12.959Z,991.21
2017-12-10T02:13:12.985Z,991.20
2017-12-10T02:14:13.008Z,991.09
2017-12-10T02:15:13.033Z,991.13
2017-12-10T02:16:13.057Z,991.11
2017-12-10T02:17:13.083Z,991.08
2017-12-10T02:18:13.106Z,991.08
2017-12-10T02:19:13.132Z,991.01
2017-12-10T02:20:13.155Z,991.01
2017-12-10T02:21:13.181Z,990.94
2017-12-10T02:22:13.211Z,990.89
2017-12-10T02:23:13.230Z,990.85
2017-12-10T02:24:13.254Z,990.83
2017-12-10T02:25:13.279Z,990.85
2017-12-10T02:26:13.304Z,990.80
2017-12-10T02:27:13.331Z,990.72
2017-12-10T02:28:13.353Z,990.70
2017-12-10T02:29:13.376Z,990.66
2017-12-10T02:30:13.402Z,990.68
2017-12-10T02:31:13.427Z,990.66
2017-12-10T02:32:13.451Z,990.61
2017-12-10T02:33:13.476Z,990.62
2017-12-10T02:34:13.503Z,990.49
2017-12-10T02:35:13.526Z,990.46
2017-12-10T02:36:13.550Z,990.44
2017-12-10T02:37:13.580Z,990.41
2017-12-10T02:38:13.599Z,990.37
2017-12-10T02:39:13.628Z,990.26
2017-12-10T02:40:13.649Z,990.24
2017-12-10T02:41:13.674Z,990.26
2017-12-10T02:42:13.699Z,990.32
2017-12-10T02:43:13.723Z,990.26
2017-12-10T02:44:13.751Z,990.18
2017-12-10T02:45:13.773Z,990.14
2017-12-10T02:46:13.798Z,990.08
2017-12-10T02:47:13.821Z,990.02
2017-12-10T02:48:13.847Z,990.01
2017-12-10T02:49:13.872Z,989.97
2017-12-10T02:50:13.896Z,989.94
2017-12-10T02:51:13.920Z,989.87
2017-12-10T02:52:13.945Z,989.84
2017-12-10T02:53:13.970Z,989.82
2017-12-10T02:54:13.994Z,989.76
2017-12-10T02:55:14.020Z,989.71
2017-12-10T02:56:14.045Z,989.70
2017-12-10T02:57:14.068Z,989.72
2017-12-10T02:58:14.163Z,989.66
2017-12-10T02:59:14.119Z,989.65
2017-12-10T03:00:14.144Z,989.63
2017-12-10T03:01:14.169Z,989.63
2017-12-10T03:02:14.195Z,989.56
2017-12-10T03:03:14.225Z,989.52
2017-12-10T03:04:14.243Z,989.57
2017-12-10T03:05:14.266Z,989.64
2017-12-10T03:06:14.292Z,989.60
2017-12-10T03:07:14.318Z,989.57
2017-12-10T03:08:14.349Z,989.48
2017-12-10T03:09:14.370Z,989.50
2017-12-10T03:10:14.393Z,989.51
2017-12-10T03:11:14.417Z,989.53
2017-12-10T03:12:14.443Z,989.54
2017-12-10T03:13:14.467Z,989.46
2017-12-10T03:14:14.492Z,989.47
2017-12-10T03:15:14.517Z,989.43
2017-12-10T03:16:14.541Z,989.43
2017-12-10T03:17:14.568Z,989.40
2017-12-10T03:18:14.592Z,989.37
2017-12-10T03:19:14.618Z,989.37
2017-12-10T03:20:14.640Z,989.38
2017-12-10T03:21:14.666Z,989.40
2017-12-10T03:22:14.692Z,989.37
2017-12-10T03:23:14.717Z,989.30
2017-12-10T03:24:14.742Z,989.31
2017-12-10T03:25:14.789Z,989.32
2017-12-10T03:26:14.792Z,989.24
2017-12-10T03:27:14.818Z,989.21
2017-12-10T03:28:14.841Z,989.20
2017-12-10T03:29:14.866Z,989.16
2017-12-10T03:30:14.896Z,989.13
2017-12-10T03:31:14.917Z,989.11
2017-12-10T03:32:14.941Z,989.13
2017-12-10T03:33:14.966Z,989.07
2017-12-10T03:34:14.992Z,989.01
2017-12-10T03:35:15.069Z,988.99
2017-12-10T03:36:15.040Z,988.92
2017-12-10T03:37:15.067Z,988.91
2017-12-10T03:38:15.090Z,988.93
2017-12-10T03:39:15.117Z,988.90
2017-12-10T03:40:15.141Z,988.86
2017-12-10T03:41:15.168Z,988.72
2017-12-10T03:42:15.192Z,988.71
2017-12-10T03:43:15.217Z,988.73
2017-12-10T03:44:15.243Z,988.68
2017-12-10T03:45:15.268Z,988.67
2017-12-10T03:46:15.291Z,988.64
2017-12-10T03:47:15.318Z,988.66
2017-12-10T03:48:15.343Z,988.57
2017-12-10T03:49:15.366Z,988.61
2017-12-10T03:50:15.393Z,988.55
2017-12-10T03:51:15.417Z,988.53
2017-12-10T03:52:15.442Z,988.54
2017-12-10T03:53:15.468Z,988.49
2017-12-10T03:54:15.493Z,988.48
2017-12-10T03:55:15.517Z,988.42
2017-12-10T03:56:15.542Z,988.40
2017-12-10T03:57:15.568Z,988.33
2017-12-10T03:58:15.593Z,988.36
2017-12-10T03:59:15.618Z,988.32
2017-12-10T04:00:15.643Z,988.33
2017-12-10T04:01:15.668Z,988.30
2017-12-10T04:02:15.694Z,988.26
2017-12-10T04:03:15.719Z,988.24
2017-12-10T04:04:15.741Z,988.19
2017-12-10T04:05:15.767Z,988.18
2017-12-10T04:06:15.793Z,988.11
2017-12-10T04:07:15.818Z,988.09
2017-12-10T04:08:15.843Z,988.08
2017-12-10T04:09:15.869Z,988.05
2017-12-10T04:10:15.894Z,988.00
2017-12-10T04:11:15.918Z,987.98
2017-12-10T04:12:15.943Z,987.99
2017-12-10T04:13:15.968Z,987.93
2017-12-10T04:14:15.992Z,987.97
2017-12-10T04:15:16.017Z,987.91
2017-12-10T04:16:16.044Z,987.91
2017-12-10T04:17:16.069Z,987.83
2017-12-10T04:18:16.093Z,987.83
2017-12-10T04:19:16.119Z,987.83
2017-12-10T04:20:16.142Z,987.80
2017-12-10T04:21:16.173Z,987.75
2017-12-10T04:22:16.197Z,987.73
2017-12-10T04:23:16.218Z,987.64
2017-12-10T04:24:16.242Z,987.64
2017-12-10T04:25:16.268Z,987.63
2017-12-10T04:26:16.294Z,987.62
2017-12-10T04:27:16.318Z,987.57
2017-12-10T04:28:16.343Z,987.49
2017-12-10T04:29:16.368Z,987.38
2017-12-10T04:30:16.393Z,987.33
2017-12-10T04:31:16.419Z,987.30
2017-12-10T04:32:16.443Z,987.23
2017-12-10T04:33:16.468Z,987.24
2017-12-10T04:34:16.497Z,987.20
2017-12-10T04:35:16.518Z,987.12
2017-12-10T04:36:16.543Z,987.14
2017-12-10T04:37:16.568Z,987.10
2017-12-10T04:38:16.593Z,987.04
2017-12-10T04:39:16.617Z,986.99
2017-12-10T04:40:16.643Z,987.00
2017-12-10T04:41:16.668Z,986.93
2017-12-10T04:42:16.695Z,986.95
2017-12-10T04:43:16.718Z,986.85
2017-12-10T04:44:16.746Z,986.77
2017-12-10T04:45:16.767Z,986.76
2017-12-10T04:46:16.792Z,986.73
2017-12-10T04:47:16.818Z,986.71
2017-12-10T04:48:16.842Z,986.75
2017-12-10T04:49:16.868Z,986.73
2017-12-10T04:50:16.892Z,986.72
2017-12-10T04:51:16.917Z,986.72
2017-12-10T04:52:16.941Z,986.65
2017-12-10T04:53:16.966Z,986.71
2017-12-10T04:54:16.992Z,986.67
2017-12-10T04:55:17.017Z,986.65
2017-12-10T04:56:17.041Z,986.63
2017-12-10T04:57:17.066Z,986.64
2017-12-10T04:58:17.091Z,986.65
2017-12-10T04:59:17.116Z,986.65
2017-12-10T05:00:17.141Z,986.62
2017-12-10T05:01:17.166Z,986.59
2017-12-10T05:02:17.191Z,986.55
2017-12-10T05:03:17.216Z,986.48
2017-12-10T05:04:17.241Z,986.40
2017-12-10T05:05:17.266Z,986.42
2017-12-10T05:06:17.290Z,986.34
2017-12-10T05:07:17.351Z,986.35
2017-12-10T05:08:17.339Z,986.31
2017-12-10T05:09:17.364Z,986.30
2017-12-10T05:10:17.389Z,986.25
2017-12-10T05:11:17.431Z,986.18
2017-12-10T05:12:17.440Z,986.12
2017-12-10T05:13:17.466Z,986.14
2017-12-10T05:14:17.488Z,986.08
2017-12-10T05:15:17.512Z,986.04
2017-12-10T05:16:17.537Z,986.05
2017-12-10T05:17:17.562Z,986.05
2017-12-10T05:18:17.588Z,986.01
2017-12-10T05:19:17.613Z,985.98
2017-12-10T05:20:17.636Z,985.96
2017-12-10T05:21:17.662Z,985.99
2017-12-10T05:22:17.686Z,985.88
2017-12-10T05:23:17.711Z,985.85
2017-12-10T05:24:17.736Z,985.74
2017-12-10T05:25:17.760Z,985.69
2017-12-10T05:26:17.788Z,985.62
2017-12-10T05:27:17.875Z,985.64
2017-12-10T05:28:17.832Z,985.61
2017-12-10T05:29:17.859Z,985.57
2017-12-10T05:30:17.884Z,985.49
2017-12-10T05:31:17.909Z,985.47
2017-12-10T05:32:17.933Z,985.44
2017-12-10T05:33:17.959Z,985.43
2017-12-10T05:34:17.983Z,985.42
2017-12-10T05:35:18.008Z,985.35
2017-12-10T05:36:18.032Z,985.33
2017-12-10T05:37:18.057Z,985.33
2017-12-10T05:38:18.085Z,985.32
2017-12-10T05:39:18.105Z,985.24
2017-12-10T05:40:18.131Z,985.21
2017-12-10T05:41:18.155Z,985.19
2017-12-10T05:42:18.181Z,985.20
2017-12-10T05:43:18.205Z,985.16
2017-12-10T05:44:18.229Z,985.19
2017-12-10T05:45:18.255Z,985.11
2017-12-10T05:46:18.280Z,985.13
2017-12-10T05:47:18.304Z,985.05
2017-12-10T05:48:18.329Z,985.02
2017-12-10T05:49:18.353Z,984.99
2017-12-10T05:50:18.379Z,984.90
2017-12-10T05:51:18.404Z,984.87
2017-12-10T05:52:18.428Z,984.79
2017-12-10T05:53:18.453Z,984.74
2017-12-10T05:54:18.478Z,984.72
2017-12-10T05:55:18.503Z,984.64
2017-12-10T05:56:18.527Z,984.65
2017-12-10T05:57:18.552Z,984.60
2017-12-10T05:58:18.577Z,984.52
2017-12-10T05:59:18.602Z,984.49
2017-12-10T06:00:18.625Z,984.38
2017-12-10T06:01:18.651Z,984.38
2017-12-10T06:02:18.676Z,984.29
2017-12-10T06:03:18.701Z,984.29
2017-12-10T06:04:18.724Z,984.22
2017-12-10T06:05:18.749Z,984.13
2017-12-10T06:06:18.775Z,984.08
2017-12-10T06:07:18.799Z,984.10
2017-12-10T06:08:18.824Z,984.00
2017-12-10T06:09:18.850Z,983.94
2017-12-10T06:10:18.875Z,983.88
2017-12-10T06:11:18.899Z,983.86
2017-12-10T06:12:18.923Z,983.84
2017-12-10T06:13:18.949Z,983.83
2017-12-10T06:14:18.972Z,983.80
2017-12-10T06:15:18.999Z,983.78
2017-12-10T06:16:19.021Z,983.76
2017-12-10T06:17:19.048Z,983.64
2017-12-10T06:18:19.073Z,983.60
2017-12-10T06:19:19.098Z,983.58
2017-12-10T06:20:19.122Z,983.50
2017-12-10T06:21:19.147Z,983.44
2017-12-10T06:22:19.171Z,983.38
2017-12-10T06:23:19.197Z,983.28
2017-12-10T06:24:19.222Z,983.25
2017-12-10T06:25:19.245Z,983.11
2017-12-10T06:26:19.271Z,983.03
2017-12-10T06:27:19.295Z,982.96
2017-12-10T06:28:19.320Z,982.95
2017-12-10T06:29:19.345Z,982.89
2017-12-10T06:30:19.370Z,982.78
2017-12-10T06:31:19.395Z,982.73
2017-12-10T06:32:19.419Z,982.62
2017-12-10T06:33:19.444Z,982.56
2017-12-10T06:34:19.468Z,982.45
2017-12-10T06:35:19.494Z,982.34
2017-12-10T06:36:19.517Z,982.28
2017-12-10T06:37:19.543Z,982.21
2017-12-10T06:38:19.568Z,982.15
2017-12-10T06:39:19.593Z,982.09
2017-12-10T06:40:19.616Z,982.03
2017-12-10T06:41:19.642Z,982.06
2017-12-10T06:42:19.666Z,981.97
2017-12-10T06:43:19.690Z,981.88
2017-12-10T06:44:19.715Z,981.83
2017-12-10T06:45:19.740Z,981.79
2017-12-10T06:46:19.765Z,981.73
2017-12-10T06:47:19.790Z,981.72
2017-12-10T06:48:19.813Z,981.64
2017-12-10T06:49:19.838Z,981.64
2017-12-10T06:50:19.864Z,981.60
2017-12-10T06:51:19.893Z,981.58
2017-12-10T06:52:19.912Z,981.46
2017-12-10T06:53:19.937Z,981.50
2017-12-10T06:54:19.962Z,981.37
2017-12-10T06:55:19.987Z,981.31
2017-12-10T06:56:20.010Z,981.27
2017-12-10T06:57:20.035Z,981.18
2017-12-10T06:58:20.064Z,981.15
2017-12-10T06:59:20.085Z,981.04
2017-12-10T07:00:20.108Z,981.00
2017-12-10T07:01:20.133Z,980.94
2017-12-10T07:02:20.160Z,980.89
2017-12-10T07:03:20.183Z,980.90
2017-12-10T07:04:20.209Z,980.89
2017-12-10T07:05:20.232Z,980.84
2017-12-10T07:06:20.257Z,980.81
2017-12-10T07:07:20.283Z,980.79
2017-12-10T07:08:20.354Z,980.76
2017-12-10T07:09:20.333Z,980.66
2017-12-10T07:10:20.358Z,980.59
2017-12-10T07:11:20.381Z,980.53
2017-12-10T07:12:20.407Z,980.48
2017-12-10T07:13:20.431Z,980.49
2017-12-10T07:14:20.455Z,980.47
2017-12-10T07:15:20.482Z,980.50
2017-12-10T07:16:20.506Z,980.49
2017-12-10T07:17:20.529Z,980.42
2017-12-10T07:18:20.555Z,980.37
2017-12-10T07:19:20.581Z,980.31
2017-12-10T07:20:20.604Z,980.38
2017-12-10T07:21:20.628Z,980.37
2017-12-10T07:22:20.655Z,980.32
2017-12-10T07:23:20.679Z,980.29
2017-12-10T07:24:20.702Z,980.22
2017-12-10T07:25:20.728Z,980.24
2017-12-10T07:26:20.751Z,980.32
2017-12-10T07:27:20.777Z,980.31
2017-12-10T07:28:20.806Z,980.30
2017-12-10T07:29:20.826Z,980.28
2017-12-10T07:30:20.852Z,980.21
2017-12-10T07:31:20.877Z,980.18
2017-12-10T07:32:20.900Z,980.14
2017-12-10T07:33:20.925Z,980.09
2017-12-10T07:34:20.949Z,980.03
2017-12-10T07:35:20.974Z,979.99
2017-12-10T07:36:20.998Z,979.89
2017-12-10T07:37:21.023Z,979.79
2017-12-10T07:38:21.047Z,979.81
2017-12-10T07:39:21.072Z,979.79
2017-12-10T07:40:21.096Z,979.70
2017-12-10T07:41:21.121Z,979.65
2017-12-10T07:42:21.146Z,979.70
2017-12-10T07:43:21.171Z,979.64
2017-12-10T07:44:21.194Z,979.55
2017-12-10T07:45:21.219Z,979.53
2017-12-10T07:46:21.244Z,979.42
2017-12-10T07:47:21.268Z,979.45
2017-12-10T07:48:21.292Z,979.47
2017-12-10T07:49:21.318Z,979.42
2017-12-10T07:50:21.342Z,979.36
2017-12-10T07:51:21.367Z,979.28
2017-12-10T07:52:21.390Z,979.23
2017-12-10T07:53:21.414Z,979.19
2017-12-10T07:54:21.440Z,979.11
2017-12-10T07:55:21.466Z,979.09
2017-12-10T07:56:21.488Z,978.97
2017-12-10T07:57:21.514Z,978.93
2017-12-10T07:58:21.539Z,978.86
2017-12-10T07:59:21.564Z,978.83
2017-12-10T08:00:21.588Z,978.78
2017-12-10T08:01:21.613Z,978.77
2017-12-10T08:02:21.638Z,978.81
2017-12-10T08:03:21.663Z,978.75
2017-12-10T08:04:21.686Z,978.66
2017-12-10T08:05:21.712Z,978.68
2017-12-10T08:06:21.743Z,978.69
2017-12-10T08:07:21.762Z,978.57
2017-12-10T08:08:21.786Z,978.54
2017-12-10T08:09:21.810Z,978.55
2017-12-10T08:10:21.838Z,978.52
2017-12-10T08:11:21.862Z,978.48
2017-12-10T08:12:21.884Z,978.44
2017-12-10T08:13:21.911Z,978.43
2017-12-10T08:14:21.936Z,978.34
2017-12-10T08:15:21.961Z,978.27
2017-12-10T08:16:21.985Z,978.18
2017-12-10T08:17:22.010Z,978.22
2017-12-10T08:18:22.036Z,978.17
2017-12-10T08:19:22.062Z,978.19
2017-12-10T08:20:22.086Z,978.17
2017-12-10T08:21:22.109Z,978.10
2017-12-10T08:22:22.135Z,978.05
2017-12-10T08:23:22.167Z,977.95
2017-12-10T08:24:22.185Z,977.94
2017-12-10T08:25:22.211Z,977.97
2017-12-10T08:26:22.236Z,977.98
2017-12-10T08:27:22.261Z,978.08
2017-12-10T08:28:22.286Z,978.11
2017-12-10T08:29:22.310Z,978.04
2017-12-10T08:30:22.343Z,978.01
2017-12-10T08:31:22.362Z,977.91
2017-12-10T08:32:22.386Z,977.87
2017-12-10T08:33:22.411Z,977.72
2017-12-10T08:34:22.438Z,977.70
2017-12-10T08:35:22.462Z,977.81
2017-12-10T08:36:22.489Z,977.82
2017-12-10T08:37:22.511Z,977.82
2017-12-10T08:38:22.536Z,977.79
2017-12-10T08:39:22.561Z,977.75
2017-12-10T08:40:22.594Z,977.71
2017-12-10T08:41:22.611Z,977.60
2017-12-10T08:42:22.638Z,977.44
2017-12-10T08:43:22.663Z,977.43
2017-12-10T08:44:22.689Z,977.38
2017-12-10T08:45:22.715Z,977.34
2017-12-10T08:46:22.740Z,977.28
2017-12-10T08:47:22.767Z,977.17
2017-12-10T08:48:22.789Z,977.03
2017-12-10T08:49:22.817Z,976.98
2017-12-10T08:50:22.841Z,976.92
2017-12-10T08:51:22.868Z,976.86
2017-12-10T08:52:22.892Z,976.85
2017-12-10T08:53:22.918Z,976.77
2017-12-10T08:54:22.944Z,976.76
2017-12-10T08:55:22.971Z,976.65
2017-12-10T08:56:23.046Z,976.64
2017-12-10T08:57:23.020Z,976.58
2017-12-10T08:58:23.045Z,976.52
2017-12-10T08:59:23.070Z,976.46
2017-12-10T09:00:23.097Z,976.43
2017-12-10T09:01:23.122Z,976.31
2017-12-10T09:02:23.148Z,976.32
2017-12-10T09:03:23.173Z,976.37
2017-12-10T09:04:23.198Z,976.25
2017-12-10T09:05:23.224Z,976.29
2017-12-10T09:06:23.259Z,976.28
2017-12-10T09:07:23.275Z,976.24
2017-12-10T09:08:23.297Z,976.23
2017-12-10T09:09:23.325Z,976.21
2017-12-10T09:10:23.349Z,976.18
2017-12-10T09:11:23.375Z,976.13
2017-12-10T09:12:23.400Z,976.01
2017-12-10T09:13:23.425Z,975.96
2017-12-10T09:14:23.451Z,975.93
2017-12-10T09:15:23.476Z,975.86
2017-12-10T09:16:23.500Z,975.78
2017-12-10T09:17:23.526Z,975.67
2017-12-10T09:18:23.551Z,975.59
2017-12-10T09:19:23.576Z,975.54
2017-12-10T09:20:23.600Z,975.46
2017-12-10T09:21:23.628Z,975.44
2017-12-10T09:22:23.650Z,975.35
2017-12-10T09:23:23.677Z,975.29
2017-12-10T09:24:23.699Z,975.22
2017-12-10T09:25:23.724Z,975.16
2017-12-10T09:26:23.749Z,975.07
2017-12-10T09:27:23.774Z,974.99
2017-12-10T09:28:23.797Z,974.93
2017-12-10T09:29:23.823Z,974.90
2017-12-10T09:30:23.848Z,974.85
2017-12-10T09:31:23.872Z,974.77
2017-12-10T09:32:23.895Z,974.73
2017-12-10T09:33:23.920Z,974.65
2017-12-10T09:34:23.947Z,974.58
2017-12-10T09:35:23.970Z,974.58
2017-12-10T09:36:23.994Z,974.50
2017-12-10T09:37:24.018Z,974.52
2017-12-10T09:38:24.041Z,974.36
2017-12-10T09:39:24.066Z,974.36
2017-12-10T09:40:24.091Z,974.26
2017-12-10T09:41:24.115Z,974.21
2017-12-10T09:42:24.183Z,974.20
2017-12-10T09:43:24.165Z,974.08
2017-12-10T09:44:24.188Z,974.03
2017-12-10T09:45:24.213Z,973.98
2017-12-10T09:46:24.244Z,973.99
2017-12-10T09:47:24.262Z,973.89
2017-12-10T09:48:24.285Z,973.82
2017-12-10T09:49:24.310Z,973.79
2017-12-10T09:50:24.333Z,973.72
2017-12-10T09:51:24.358Z,973.66
2017-12-10T09:52:24.382Z,973.61
2017-12-10T09:53:24.407Z,973.58
2017-12-10T09:54:24.433Z,973.55
2017-12-10T09:55:24.474Z,973.52
2017-12-10T09:56:24.479Z,973.47
2017-12-10T09:57:24.510Z,973.38
2017-12-10T09:58:24.527Z,973.34
2017-12-10T09:59:24.554Z,973.28
2017-12-10T10:00:24.577Z,973.24
2017-12-10T10:01:24.600Z,973.22
2017-12-10T10:02:24.629Z,973.06
2017-12-10T10:03:24.648Z,973.04
2017-12-10T10:04:24.671Z,972.99
2017-12-10T10:05:24.696Z,972.97
2017-12-10T10:06:24.721Z,972.90
2017-12-10T10:07:24.747Z,972.92
2017-12-10T10:08:24.768Z,972.82
2017-12-10T10:09:24.792Z,972.76
2017-12-10T10:10:24.824Z,972.66
2017-12-10T10:11:24.841Z,972.57
2017-12-10T10:12:24.864Z,972.45
2017-12-10T10:13:24.889Z,972.41
2017-12-10T10:14:24.914Z,972.38
2017-12-10T10:15:24.938Z,972.30
2017-12-10T10:16:24.962Z,972.26
2017-12-10T10:17:24.986Z,972.17
2017-12-10T10:18:25.010Z,972.04
2017-12-10T10:19:25.035Z,971.96
2017-12-10T10:20:25.058Z,971.88
2017-12-10T10:21:25.083Z,971.80
2017-12-10T10:22:25.107Z,971.78
2017-12-10T10:23:25.132Z,971.77
2017-12-10T10:24:25.155Z,971.70
2017-12-10T10:25:25.222Z,971.63
2017-12-10T10:26:25.203Z,971.62
2017-12-10T10:27:25.229Z,971.57
2017-12-10T10:28:25.252Z,971.51
2017-12-10T10:29:25.277Z,971.43
2017-12-10T10:30:25.301Z,971.32
2017-12-10T10:31:25.326Z,971.33
2017-12-10T10:32:25.349Z,971.22
2017-12-10T10:33:25.374Z,971.14
2017-12-10T10:34:25.399Z,971.13
2017-12-10T10:35:25.424Z,971.07
2017-12-10T10:36:25.448Z,970.89
2017-12-10T10:37:25.474Z,970.95
2017-12-10T10:38:25.496Z,970.86
2017-12-10T10:39:25.521Z,970.85
2017-12-10T10:40:25.545Z,970.83
2017-12-10T10:41:25.569Z,970.89
2017-12-10T10:42:25.597Z,970.70
2017-12-10T10:43:25.620Z,970.68
2017-12-10T10:44:25.642Z,970.79
2017-12-10T10:45:25.667Z,970.70
2017-12-10T10:46:25.692Z,970.68
2017-12-10T10:47:25.718Z,970.58
2017-12-10T10:48:25.742Z,970.57
2017-12-10T10:49:25.767Z,970.47
2017-12-10T10:50:25.792Z,970.44
2017-12-10T10:51:25.817Z,970.34
2017-12-10T10:52:25.841Z,970.34
2017-12-10T10:53:25.866Z,970.26
2017-12-10T10:54:25.891Z,970.25
2017-12-10T10:55:25.916Z,970.22
2017-12-10T10:56:25.941Z,970.10
2017-12-10T10:57:25.967Z,970.15
2017-12-10T10:58:26.050Z,970.13
2017-12-10T10:59:26.016Z,970.06
2017-12-10T11:00:26.040Z,970.03
2017-12-10T11:01:26.066Z,969.94
2017-12-10T11:02:26.091Z,969.82
2017-12-10T11:03:26.116Z,969.87
2017-12-10T11:04:26.140Z,969.83
2017-12-10T11:05:26.166Z,969.76
2017-12-10T11:06:26.191Z,969.77
2017-12-10T11:07:26.217Z,969.70
2017-12-10T11:08:26.241Z,969.60
2017-12-10T11:09:26.266Z,969.63
2017-12-10T11:10:26.291Z,969.60
2017-12-10T11:11:26.318Z,969.54
2017-12-10T11:12:26.342Z,969.48
2017-12-10T11:13:26.368Z,969.52
2017-12-10T11:14:26.393Z,969.42
2017-12-10T11:15:26.417Z,969.44
2017-12-10T11:16:26.443Z,969.38
2017-12-10T11:17:26.468Z,969.27
2017-12-10T11:18:26.494Z,969.27
2017-12-10T11:19:26.521Z,969.19
2017-12-10T11:20:26.554Z,969.11
2017-12-10T11:21:26.570Z,969.12
2017-12-10T11:22:26.596Z,969.16
2017-12-10T11:23:26.622Z,969.09
2017-12-10T11:24:26.647Z,969.00
2017-12-10T11:25:26.672Z,968.98
2017-12-10T11:26:26.699Z,968.93
2017-12-10T11:27:26.726Z,968.91
2017-12-10T11:28:26.750Z,968.95
2017-12-10T11:29:26.776Z,968.89
2017-12-10T11:30:26.802Z,968.90
2017-12-10T11:31:26.828Z,968.84
2017-12-10T11:32:26.852Z,968.81
2017-12-10T11:33:26.879Z,968.82
2017-12-10T11:34:26.904Z,968.82
2017-12-10T11:35:26.931Z,968.78
2017-12-10T11:36:26.957Z,968.75
2017-12-10T11:37:26.983Z,968.61
2017-12-10T11:38:27.008Z,968.60
2017-12-10T11:39:27.038Z,968.53
2017-12-10T11:40:27.060Z,968.51
2017-12-10T11:41:27.086Z,968.47
2017-12-10T11:42:27.113Z,968.50
2017-12-10T11:43:27.138Z,968.47
2017-12-10T11:44:27.164Z,968.56
2017-12-10T11:45:27.191Z,968.55
2017-12-10T11:46:27.216Z,968.57
2017-12-10T11:47:27.244Z,968.52
2017-12-10T11:48:27.271Z,968.51
2017-12-10T11:49:27.302Z,968.30
2017-12-10T11:50:27.322Z,968.30
2017-12-10T11:51:27.347Z,968.32
2017-12-10T11:52:27.374Z,968.35
2017-12-10T11:53:27.400Z,968.33
2017-12-10T11:54:27.428Z,968.36
2017-12-10T11:55:27.453Z,968.30
2017-12-10T11:56:27.479Z,968.36
2017-12-10T11:57:27.506Z,968.32
2017-12-10T11:58:27.532Z,968.34
2017-12-10T11:59:27.558Z,968.38
2017-12-10T12:00:27.584Z,968.28
2017-12-10T12:01:27.611Z,968.30
2017-12-10T12:02:27.637Z,968.29
2017-12-10T12:03:27.678Z,968.25
2017-12-10T12:04:27.689Z,968.32
2017-12-10T12:05:27.714Z,968.26
2017-12-10T12:06:27.743Z,968.33
2017-12-10T12:07:27.769Z,968.21
2017-12-10T12:08:27.794Z,968.24
2017-12-10T12:09:27.822Z,968.32
2017-12-10T12:10:27.848Z,968.17
2017-12-10T12:11:27.875Z,968.20
2017-12-10T12:12:27.901Z,968.22
2017-12-10T12:13:27.927Z,968.26
2017-12-10T12:14:27.954Z,968.29
2017-12-10T12:15:27.981Z,968.15
2017-12-10T12:16:28.006Z,967.97
2017-12-10T12:17:28.033Z,968.20
2017-12-10T12:18:28.060Z,968.13
2017-12-10T12:19:28.087Z,968.15
2017-12-10T12:20:28.112Z,968.08
2017-12-10T12:21:28.139Z,968.05
2017-12-10T12:22:28.165Z,968.01
2017-12-10T12:23:28.192Z,967.95
2017-12-10T12:24:28.218Z,967.93
2017-12-10T12:25:28.243Z,967.87
2017-12-10T12:26:28.271Z,967.81
2017-12-10T12:27:28.297Z,967.89
2017-12-10T12:28:28.323Z,967.76